sensor_id;sensor_type;location;lat;lon;timestamp;temperature;humidity
17364;DHT22;8799;43.594;13.526;2022-11-20T00:02:19;16.90;99.90
17364;DHT22;8799;43.594;13.526;2022-11-20T00:04:47;16.90;99.90
17364;DHT22;8799;43.594;13.526;2022-11-20T00:07:16;16.90;99.90
17364;DHT22;8799;43.594;13.526;2022-11-20T00:09:44;16.80;99.90
17364;DHT22;8799;43.594;13.526;2022-11-20T00:12:11;16.90;99.90
17364;DHT22;8799;43.594;13.526;2022-11-20T00:14:40;16.90;99.90
17364;DHT22;8799;43.594;13.526;2022-11-20T00:17:10;16.80;99.90
17364;DHT22;8799;43.594;13.526;2022-11-20T00:19:38;16.80;99.90
17364;DHT22;8799;43.594;13.526;2022-11-20T00:22:06;16.80;99.90
17364;DHT22;8799;43.594;13.526;2022-11-20T00:24:34;16.80;99.90
17364;DHT22;8799;43.594;13.526;2022-11-20T00:27:02;16.80;99.90
17364;DHT22;8799;43.594;13.526;2022-11-20T00:29:30;16.80;99.90
17364;DHT22;8799;43.594;13.526;2022-11-20T00:31:58;16.80;99.90
17364;DHT22;8799;43.594;13.526;2022-11-20T00:34:28;16.80;99.90
17364;DHT22;8799;43.594;13.526;2022-11-20T00:36:56;16.80;99.90
17364;DHT22;8799;43.594;13.526;2022-11-20T00:39:25;16.80;99.90
17364;DHT22;8799;43.594;13.526;2022-11-20T00:41:52;16.80;99.90
17364;DHT22;8799;43.594;13.526;2022-11-20T00:44:21;16.80;99.90
17364;DHT22;8799;43.594;13.526;2022-11-20T00:47:02;16.80;99.90
17364;DHT22;8799;43.594;13.526;2022-11-20T00:49:35;16.80;99.90
17364;DHT22;8799;43.594;13.526;2022-11-20T00:52:06;16.80;99.90
17364;DHT22;8799;43.594;13.526;2022-11-20T00:54:38;16.70;99.90
17364;DHT22;8799;43.594;13.526;2022-11-20T00:57:06;16.80;99.90
17364;DHT22;8799;43.594;13.526;2022-11-20T00:59:35;16.70;99.90
17364;DHT22;8799;43.594;13.526;2022-11-20T01:02:03;16.80;99.90
17364;DHT22;8799;43.594;13.526;2022-11-20T01:04:30;16.70;99.90
17364;DHT22;8799;43.594;13.526;2022-11-20T01:07:00;16.70;99.90
17364;DHT22;8799;43.594;13.526;2022-11-20T01:09:29;16.70;99.90
17364;DHT22;8799;43.594;13.526;2022-11-20T01:11:58;16.70;99.90
17364;DHT22;8799;43.594;13.526;2022-11-20T01:14:27;16.70;99.90
17364;DHT22;8799;43.594;13.526;2022-11-20T01:16:55;16.70;99.90
17364;DHT22;8799;43.594;13.526;2022-11-20T01:19:25;16.70;99.90
17364;DHT22;8799;43.594;13.526;2022-11-20T01:21:54;16.70;99.90
17364;DHT22;8799;43.594;13.526;2022-11-20T01:24:24;16.70;99.90
17364;DHT22;8799;43.594;13.526;2022-11-20T01:26:52;16.70;99.90
17364;DHT22;8799;43.594;13.526;2022-11-20T01:29:22;16.70;99.90
17364;DHT22;8799;43.594;13.526;2022-11-20T01:31:51;16.70;99.90
17364;DHT22;8799;43.594;13.526;2022-11-20T01:34:21;16.70;99.90
17364;DHT22;8799;43.594;13.526;2022-11-20T01:36:50;16.70;99.90
17364;DHT22;8799;43.594;13.526;2022-11-20T01:39:19;16.70;99.90
17364;DHT22;8799;43.594;13.526;2022-11-20T01:41:50;16.70;99.90
17364;DHT22;8799;43.594;13.526;2022-11-20T01:44:50;16.70;99.90
17364;DHT22;8799;43.594;13.526;2022-11-20T01:47:24;16.70;99.90
17364;DHT22;8799;43.594;13.526;2022-11-20T01:49:56;16.70;99.90
17364;DHT22;8799;43.594;13.526;2022-11-20T01:52:30;16.70;99.90
17364;DHT22;8799;43.594;13.526;2022-11-20T01:55:03;16.70;99.90
17364;DHT22;8799;43.594;13.526;2022-11-20T01:57:35;16.70;99.90
17364;DHT22;8799;43.594;13.526;2022-11-20T02:00:07;16.70;99.90
17364;DHT22;8799;43.594;13.526;2022-11-20T02:02:37;16.70;99.90
17364;DHT22;8799;43.594;13.526;2022-11-20T02:05:14;16.60;99.90
17364;DHT22;8799;43.594;13.526;2022-11-20T02:07:44;16.60;99.90
17364;DHT22;8799;43.594;13.526;2022-11-20T02:10:13;16.60;99.90
17364;DHT22;8799;43.594;13.526;2022-11-20T02:12:43;16.60;99.90
17364;DHT22;8799;43.594;13.526;2022-11-20T02:15:29;16.60;99.90
17364;DHT22;8799;43.594;13.526;2022-11-20T02:17:58;16.70;99.90
17364;DHT22;8799;43.594;13.526;2022-11-20T02:20:27;16.60;99.90
17364;DHT22;8799;43.594;13.526;2022-11-20T02:23:01;16.60;99.90
17364;DHT22;8799;43.594;13.526;2022-11-20T02:25:33;16.60;99.90
17364;DHT22;8799;43.594;13.526;2022-11-20T02:28:02;16.60;99.90
17364;DHT22;8799;43.594;13.526;2022-11-20T02:30:30;16.60;99.90
17364;DHT22;8799;43.594;13.526;2022-11-20T02:32:58;16.60;99.90
17364;DHT22;8799;43.594;13.526;2022-11-20T02:35:43;16.60;99.90
17364;DHT22;8799;43.594;13.526;2022-11-20T02:38:11;16.60;99.90
17364;DHT22;8799;43.594;13.526;2022-11-20T02:43:36;18.30;99.90
17364;DHT22;8799;43.594;13.526;2022-11-20T02:46:06;16.60;99.90
17364;DHT22;8799;43.594;13.526;2022-11-20T02:48:34;16.60;99.90
17364;DHT22;8799;43.594;13.526;2022-11-20T02:51:02;16.60;99.90
17364;DHT22;8799;43.594;13.526;2022-11-20T02:53:31;16.60;99.90
17364;DHT22;8799;43.594;13.526;2022-11-20T02:56:00;16.60;99.90
17364;DHT22;8799;43.594;13.526;2022-11-20T02:58:28;16.60;99.90
17364;DHT22;8799;43.594;13.526;2022-11-20T03:00:58;16.60;99.90
17364;DHT22;8799;43.594;13.526;2022-11-20T03:03:27;16.60;99.90
17364;DHT22;8799;43.594;13.526;2022-11-20T03:05:55;16.60;99.90
17364;DHT22;8799;43.594;13.526;2022-11-20T03:08:23;16.50;99.90
17364;DHT22;8799;43.594;13.526;2022-11-20T03:10:51;16.50;99.90
17364;DHT22;8799;43.594;13.526;2022-11-20T03:13:20;16.50;99.90
17364;DHT22;8799;43.594;13.526;2022-11-20T03:15:48;16.60;99.90
17364;DHT22;8799;43.594;13.526;2022-11-20T03:18:17;16.50;99.90
17364;DHT22;8799;43.594;13.526;2022-11-20T03:20:45;16.50;99.90
17364;DHT22;8799;43.594;13.526;2022-11-20T03:23:13;16.50;99.90
17364;DHT22;8799;43.594;13.526;2022-11-20T03:25:40;16.50;99.90
17364;DHT22;8799;43.594;13.526;2022-11-20T03:28:07;16.50;99.90
17364;DHT22;8799;43.594;13.526;2022-11-20T03:30:37;16.50;99.90
17364;DHT22;8799;43.594;13.526;2022-11-20T03:33:06;16.50;99.90
17364;DHT22;8799;43.594;13.526;2022-11-20T03:35:34;16.50;99.90
17364;DHT22;8799;43.594;13.526;2022-11-20T03:38:02;16.50;99.90
17364;DHT22;8799;43.594;13.526;2022-11-20T03:40:30;16.50;99.90
17364;DHT22;8799;43.594;13.526;2022-11-20T03:42:58;16.50;99.90
17364;DHT22;8799;43.594;13.526;2022-11-20T03:45:26;16.50;99.90
17364;DHT22;8799;43.594;13.526;2022-11-20T03:47:56;16.50;99.90
17364;DHT22;8799;43.594;13.526;2022-11-20T03:50:23;16.50;99.90
17364;DHT22;8799;43.594;13.526;2022-11-20T03:52:51;16.50;99.90
17364;DHT22;8799;43.594;13.526;2022-11-20T03:55:19;16.50;99.90
17364;DHT22;8799;43.594;13.526;2022-11-20T03:57:47;16.50;99.90
17364;DHT22;8799;43.594;13.526;2022-11-20T04:00:15;16.50;99.90
17364;DHT22;8799;43.594;13.526;2022-11-20T04:02:43;16.50;99.90
17364;DHT22;8799;43.594;13.526;2022-11-20T04:05:13;16.50;99.90
17364;DHT22;8799;43.594;13.526;2022-11-20T04:07:40;16.50;99.90
17364;DHT22;8799;43.594;13.526;2022-11-20T04:10:09;16.50;99.90
17364;DHT22;8799;43.594;13.526;2022-11-20T04:12:37;16.50;99.90
17364;DHT22;8799;43.594;13.526;2022-11-20T04:15:06;16.50;99.90
17364;DHT22;8799;43.594;13.526;2022-11-20T04:17:34;16.50;99.90
17364;DHT22;8799;43.594;13.526;2022-11-20T04:20:02;16.50;99.90
17364;DHT22;8799;43.594;13.526;2022-11-20T04:22:33;16.90;99.90
17364;DHT22;8799;43.594;13.526;2022-11-20T04:25:01;16.40;99.90
17364;DHT22;8799;43.594;13.526;2022-11-20T04:27:30;16.40;99.90
17364;DHT22;8799;43.594;13.526;2022-11-20T04:29:58;16.50;99.90
17364;DHT22;8799;43.594;13.526;2022-11-20T04:32:26;16.50;99.90
17364;DHT22;8799;43.594;13.526;2022-11-20T04:34:54;16.50;99.90
17364;DHT22;8799;43.594;13.526;2022-11-20T04:37:23;16.40;99.90
17364;DHT22;8799;43.594;13.526;2022-11-20T04:39:53;16.50;99.90
17364;DHT22;8799;43.594;13.526;2022-11-20T04:42:20;16.40;99.90
17364;DHT22;8799;43.594;13.526;2022-11-20T04:44:58;16.40;99.90
17364;DHT22;8799;43.594;13.526;2022-11-20T04:47:25;16.50;99.90
17364;DHT22;8799;43.594;13.526;2022-11-20T04:49:53;16.50;99.90
17364;DHT22;8799;43.594;13.526;2022-11-20T04:52:21;16.40;99.90
17364;DHT22;8799;43.594;13.526;2022-11-20T04:54:49;16.40;99.90
17364;DHT22;8799;43.594;13.526;2022-11-20T04:57:21;16.40;99.90
17364;DHT22;8799;43.594;13.526;2022-11-20T04:59:50;16.40;99.90
17364;DHT22;8799;43.594;13.526;2022-11-20T05:02:19;16.40;99.90
17364;DHT22;8799;43.594;13.526;2022-11-20T05:04:47;16.40;99.90
17364;DHT22;8799;43.594;13.526;2022-11-20T05:07:16;16.40;99.90
17364;DHT22;8799;43.594;13.526;2022-11-20T05:09:45;16.40;99.90
17364;DHT22;8799;43.594;13.526;2022-11-20T05:12:12;16.40;99.90
17364;DHT22;8799;43.594;13.526;2022-11-20T05:14:42;16.40;99.90
17364;DHT22;8799;43.594;13.526;2022-11-20T05:17:11;16.40;99.90
17364;DHT22;8799;43.594;13.526;2022-11-20T05:19:39;16.40;99.90
17364;DHT22;8799;43.594;13.526;2022-11-20T05:22:06;16.40;99.90
17364;DHT22;8799;43.594;13.526;2022-11-20T05:24:37;16.40;99.90
17364;DHT22;8799;43.594;13.526;2022-11-20T05:27:05;16.40;99.90
17364;DHT22;8799;43.594;13.526;2022-11-20T05:29:33;16.40;99.90
17364;DHT22;8799;43.594;13.526;2022-11-20T05:32:04;16.40;99.90
17364;DHT22;8799;43.594;13.526;2022-11-20T05:34:35;16.40;99.90
17364;DHT22;8799;43.594;13.526;2022-11-20T05:37:05;16.40;99.90
17364;DHT22;8799;43.594;13.526;2022-11-20T05:39:34;16.40;99.90
17364;DHT22;8799;43.594;13.526;2022-11-20T05:42:03;16.40;99.90
17364;DHT22;8799;43.594;13.526;2022-11-20T05:44:47;16.40;99.90
17364;DHT22;8799;43.594;13.526;2022-11-20T05:47:17;16.40;99.90
17364;DHT22;8799;43.594;13.526;2022-11-20T05:49:45;16.40;99.90
17364;DHT22;8799;43.594;13.526;2022-11-20T05:52:13;16.40;99.90
17364;DHT22;8799;43.594;13.526;2022-11-20T05:54:41;16.40;99.90
17364;DHT22;8799;43.594;13.526;2022-11-20T05:57:09;16.40;99.90
17364;DHT22;8799;43.594;13.526;2022-11-20T05:59:37;16.40;99.90
17364;DHT22;8799;43.594;13.526;2022-11-20T06:02:05;16.40;99.90
17364;DHT22;8799;43.594;13.526;2022-11-20T06:04:35;16.40;99.90
17364;DHT22;8799;43.594;13.526;2022-11-20T06:07:05;16.40;99.90
17364;DHT22;8799;43.594;13.526;2022-11-20T06:09:33;16.40;99.90
17364;DHT22;8799;43.594;13.526;2022-11-20T06:12:01;16.40;99.90
17364;DHT22;8799;43.594;13.526;2022-11-20T06:14:30;16.40;99.90
17364;DHT22;8799;43.594;13.526;2022-11-20T06:16:58;16.40;99.90
17364;DHT22;8799;43.594;13.526;2022-11-20T06:19:27;16.40;99.90
17364;DHT22;8799;43.594;13.526;2022-11-20T06:21:57;16.40;99.90
17364;DHT22;8799;43.594;13.526;2022-11-20T06:24:25;16.30;99.90
17364;DHT22;8799;43.594;13.526;2022-11-20T06:26:53;16.40;99.90
17364;DHT22;8799;43.594;13.526;2022-11-20T06:29:21;16.40;99.90
17364;DHT22;8799;43.594;13.526;2022-11-20T06:31:49;16.40;99.90
17364;DHT22;8799;43.594;13.526;2022-11-20T06:34:17;16.30;99.90
17364;DHT22;8799;43.594;13.526;2022-11-20T06:36:44;16.30;99.90
17364;DHT22;8799;43.594;13.526;2022-11-20T06:39:14;16.30;99.90
17364;DHT22;8799;43.594;13.526;2022-11-20T06:41:42;16.30;99.90
17364;DHT22;8799;43.594;13.526;2022-11-20T06:44:10;16.30;99.90
17364;DHT22;8799;43.594;13.526;2022-11-20T06:46:38;16.30;99.90
17364;DHT22;8799;43.594;13.526;2022-11-20T06:49:06;16.30;99.90
17364;DHT22;8799;43.594;13.526;2022-11-20T06:51:35;16.30;99.90
17364;DHT22;8799;43.594;13.526;2022-11-20T06:54:03;16.30;99.90
17364;DHT22;8799;43.594;13.526;2022-11-20T06:56:33;16.30;99.90
17364;DHT22;8799;43.594;13.526;2022-11-20T06:59:04;16.30;99.90
17364;DHT22;8799;43.594;13.526;2022-11-20T07:01:32;16.30;99.90
17364;DHT22;8799;43.594;13.526;2022-11-20T07:04:00;16.30;99.90
17364;DHT22;8799;43.594;13.526;2022-11-20T07:06:28;16.30;99.90
17364;DHT22;8799;43.594;13.526;2022-11-20T07:08:56;16.30;99.90
17364;DHT22;8799;43.594;13.526;2022-11-20T07:11:24;16.30;99.90
17364;DHT22;8799;43.594;13.526;2022-11-20T07:13:54;16.30;99.90
17364;DHT22;8799;43.594;13.526;2022-11-20T07:16:23;16.20;99.90
17364;DHT22;8799;43.594;13.526;2022-11-20T07:18:52;16.20;99.90
17364;DHT22;8799;43.594;13.526;2022-11-20T07:21:20;16.20;99.90
17364;DHT22;8799;43.594;13.526;2022-11-20T07:23:48;16.20;99.90
17364;DHT22;8799;43.594;13.526;2022-11-20T07:26:17;16.30;99.90
17364;DHT22;8799;43.594;13.526;2022-11-20T07:28:45;16.30;99.90
17364;DHT22;8799;43.594;13.526;2022-11-20T07:31:15;16.30;99.90
17364;DHT22;8799;43.594;13.526;2022-11-20T07:33:43;16.30;99.90
17364;DHT22;8799;43.594;13.526;2022-11-20T07:36:11;16.30;99.90
17364;DHT22;8799;43.594;13.526;2022-11-20T07:38:39;16.30;99.90
17364;DHT22;8799;43.594;13.526;2022-11-20T07:41:07;16.40;99.90
17364;DHT22;8799;43.594;13.526;2022-11-20T07:43:34;16.40;99.90
17364;DHT22;8799;43.594;13.526;2022-11-20T07:46:03;16.40;99.90
17364;DHT22;8799;43.594;13.526;2022-11-20T07:48:33;16.40;99.90
17364;DHT22;8799;43.594;13.526;2022-11-20T07:51:01;16.40;99.90
17364;DHT22;8799;43.594;13.526;2022-11-20T07:53:30;16.50;99.90
17364;DHT22;8799;43.594;13.526;2022-11-20T07:55:59;16.50;99.90
17364;DHT22;8799;43.594;13.526;2022-11-20T07:58:29;16.50;99.90
17364;DHT22;8799;43.594;13.526;2022-11-20T08:01:01;16.50;99.90
17364;DHT22;8799;43.594;13.526;2022-11-20T08:03:29;16.40;99.90
17364;DHT22;8799;43.594;13.526;2022-11-20T08:06:00;16.50;99.90
17364;DHT22;8799;43.594;13.526;2022-11-20T08:08:28;16.40;99.90
17364;DHT22;8799;43.594;13.526;2022-11-20T08:10:57;16.40;99.90
17364;DHT22;8799;43.594;13.526;2022-11-20T08:13:44;16.40;99.90
17364;DHT22;8799;43.594;13.526;2022-11-20T08:16:29;16.40;99.90
17364;DHT22;8799;43.594;13.526;2022-11-20T08:18:58;16.30;99.90
17364;DHT22;8799;43.594;13.526;2022-11-20T08:21:29;16.30;99.90
17364;DHT22;8799;43.594;13.526;2022-11-20T08:23:57;16.30;99.90
17364;DHT22;8799;43.594;13.526;2022-11-20T08:26:26;16.30;99.90
17364;DHT22;8799;43.594;13.526;2022-11-20T08:28:54;16.30;99.90
17364;DHT22;8799;43.594;13.526;2022-11-20T08:31:23;16.30;99.90
17364;DHT22;8799;43.594;13.526;2022-11-20T08:33:54;16.20;99.90
17364;DHT22;8799;43.594;13.526;2022-11-20T08:36:43;16.20;99.90
17364;DHT22;8799;43.594;13.526;2022-11-20T08:39:12;16.10;99.90
17364;DHT22;8799;43.594;13.526;2022-11-20T08:44:48;16.40;99.90
17364;DHT22;8799;43.594;13.526;2022-11-20T08:47:16;16.10;99.90
17364;DHT22;8799;43.594;13.526;2022-11-20T08:49:44;16.10;99.90
17364;DHT22;8799;43.594;13.526;2022-11-20T08:52:14;16.10;99.90
17364;DHT22;8799;43.594;13.526;2022-11-20T08:54:41;16.10;99.90
17364;DHT22;8799;43.594;13.526;2022-11-20T08:57:09;16.10;99.90
17364;DHT22;8799;43.594;13.526;2022-11-20T08:59:37;16.10;99.90
17364;DHT22;8799;43.594;13.526;2022-11-20T09:02:05;16.20;99.90
17364;DHT22;8799;43.594;13.526;2022-11-20T09:07:13;16.20;99.90
17364;DHT22;8799;43.594;13.526;2022-11-20T09:09:42;16.20;99.90
17364;DHT22;8799;43.594;13.526;2022-11-20T09:12:10;16.30;99.90
17364;DHT22;8799;43.594;13.526;2022-11-20T09:14:38;16.30;99.90
17364;DHT22;8799;43.594;13.526;2022-11-20T09:17:06;16.30;99.90
17364;DHT22;8799;43.594;13.526;2022-11-20T09:19:36;16.30;99.90
17364;DHT22;8799;43.594;13.526;2022-11-20T09:22:05;16.30;99.90
17364;DHT22;8799;43.594;13.526;2022-11-20T09:24:33;16.30;99.90
17364;DHT22;8799;43.594;13.526;2022-11-20T09:27:03;16.30;99.90
17364;DHT22;8799;43.594;13.526;2022-11-20T09:29:31;16.30;99.90
17364;DHT22;8799;43.594;13.526;2022-11-20T09:31:59;16.20;99.90
17364;DHT22;8799;43.594;13.526;2022-11-20T09:34:27;16.30;99.90
17364;DHT22;8799;43.594;13.526;2022-11-20T09:36:55;16.30;99.90
17364;DHT22;8799;43.594;13.526;2022-11-20T09:39:22;16.30;99.90
17364;DHT22;8799;43.594;13.526;2022-11-20T09:42:09;16.30;99.90
17364;DHT22;8799;43.594;13.526;2022-11-20T09:44:49;16.30;99.90
17364;DHT22;8799;43.594;13.526;2022-11-20T09:47:35;16.30;99.90
17364;DHT22;8799;43.594;13.526;2022-11-20T09:50:18;16.30;99.90
17364;DHT22;8799;43.594;13.526;2022-11-20T09:53:10;16.30;99.90
17364;DHT22;8799;43.594;13.526;2022-11-20T09:55:39;16.30;99.90
17364;DHT22;8799;43.594;13.526;2022-11-20T09:58:14;16.30;99.90
17364;DHT22;8799;43.594;13.526;2022-11-20T10:00:43;16.30;99.90
17364;DHT22;8799;43.594;13.526;2022-11-20T10:03:14;16.30;99.90
17364;DHT22;8799;43.594;13.526;2022-11-20T10:05:46;16.30;99.90
17364;DHT22;8799;43.594;13.526;2022-11-20T10:08:19;16.30;99.90
17364;DHT22;8799;43.594;13.526;2022-11-20T10:10:52;16.30;99.90
17364;DHT22;8799;43.594;13.526;2022-11-20T10:13:33;16.30;99.90
17364;DHT22;8799;43.594;13.526;2022-11-20T10:16:17;16.30;99.90
17364;DHT22;8799;43.594;13.526;2022-11-20T10:18:57;16.30;99.90
17364;DHT22;8799;43.594;13.526;2022-11-20T10:21:33;16.30;99.90
17364;DHT22;8799;43.594;13.526;2022-11-20T10:24:24;16.30;99.90
17364;DHT22;8799;43.594;13.526;2022-11-20T10:27:06;16.20;99.90
17364;DHT22;8799;43.594;13.526;2022-11-20T10:29:40;16.20;99.90
17364;DHT22;8799;43.594;13.526;2022-11-20T10:32:14;16.20;99.90
17364;DHT22;8799;43.594;13.526;2022-11-20T10:34:48;16.20;99.90
17364;DHT22;8799;43.594;13.526;2022-11-20T10:37:23;16.20;99.90
17364;DHT22;8799;43.594;13.526;2022-11-20T10:39:55;16.20;99.90
17364;DHT22;8799;43.594;13.526;2022-11-20T10:42:29;16.20;99.90
17364;DHT22;8799;43.594;13.526;2022-11-20T10:45:04;16.20;99.90
17364;DHT22;8799;43.594;13.526;2022-11-20T10:47:38;16.20;99.90
17364;DHT22;8799;43.594;13.526;2022-11-20T10:50:10;16.30;99.90
17364;DHT22;8799;43.594;13.526;2022-11-20T10:52:48;16.20;99.90
17364;DHT22;8799;43.594;13.526;2022-11-20T10:55:28;16.30;99.90
17364;DHT22;8799;43.594;13.526;2022-11-20T10:58:03;16.30;99.90
17364;DHT22;8799;43.594;13.526;2022-11-20T11:00:34;16.30;99.90
17364;DHT22;8799;43.594;13.526;2022-11-20T11:03:02;16.30;99.90
17364;DHT22;8799;43.594;13.526;2022-11-20T11:05:36;16.40;99.90
17364;DHT22;8799;43.594;13.526;2022-11-20T11:08:12;16.30;99.90
17364;DHT22;8799;43.594;13.526;2022-11-20T11:10:46;16.30;99.90
17364;DHT22;8799;43.594;13.526;2022-11-20T11:13:21;16.30;99.90
17364;DHT22;8799;43.594;13.526;2022-11-20T11:15:51;16.30;99.90
17364;DHT22;8799;43.594;13.526;2022-11-20T11:18:29;16.20;99.90
17364;DHT22;8799;43.594;13.526;2022-11-20T11:20:59;16.20;99.90
17364;DHT22;8799;43.594;13.526;2022-11-20T11:23:32;16.20;99.90
17364;DHT22;8799;43.594;13.526;2022-11-20T11:26:03;16.20;99.90
17364;DHT22;8799;43.594;13.526;2022-11-20T11:28:32;16.20;99.90
17364;DHT22;8799;43.594;13.526;2022-11-20T11:31:01;16.20;99.90
17364;DHT22;8799;43.594;13.526;2022-11-20T11:33:31;16.10;99.90
17364;DHT22;8799;43.594;13.526;2022-11-20T11:36:01;16.20;99.90
17364;DHT22;8799;43.594;13.526;2022-11-20T11:38:33;16.10;99.90
17364;DHT22;8799;43.594;13.526;2022-11-20T11:41:03;16.20;99.90
17364;DHT22;8799;43.594;13.526;2022-11-20T11:43:35;16.20;99.90
17364;DHT22;8799;43.594;13.526;2022-11-20T11:46:37;16.20;99.90
17364;DHT22;8799;43.594;13.526;2022-11-20T11:49:16;16.20;99.90
17364;DHT22;8799;43.594;13.526;2022-11-20T11:51:58;16.20;99.90
17364;DHT22;8799;43.594;13.526;2022-11-20T11:54:32;16.20;99.90
17364;DHT22;8799;43.594;13.526;2022-11-20T11:57:09;16.20;99.90
17364;DHT22;8799;43.594;13.526;2022-11-20T11:59:49;16.10;99.90
17364;DHT22;8799;43.594;13.526;2022-11-20T12:02:31;16.20;99.90
17364;DHT22;8799;43.594;13.526;2022-11-20T12:05:03;16.20;99.90
17364;DHT22;8799;43.594;13.526;2022-11-20T12:07:39;16.20;99.90
17364;DHT22;8799;43.594;13.526;2022-11-20T12:10:20;16.20;99.90
17364;DHT22;8799;43.594;13.526;2022-11-20T12:12:51;16.10;99.90
17364;DHT22;8799;43.594;13.526;2022-11-20T12:15:30;16.10;99.90
17364;DHT22;8799;43.594;13.526;2022-11-20T12:18:00;16.10;99.90
17364;DHT22;8799;43.594;13.526;2022-11-20T12:20:32;16.10;99.90
17364;DHT22;8799;43.594;13.526;2022-11-20T12:23:08;16.20;99.90
17364;DHT22;8799;43.594;13.526;2022-11-20T12:25:38;16.20;99.90
17364;DHT22;8799;43.594;13.526;2022-11-20T12:28:31;16.20;99.90
17364;DHT22;8799;43.594;13.526;2022-11-20T12:31:18;16.20;99.90
17364;DHT22;8799;43.594;13.526;2022-11-20T12:36:43;16.20;99.90
17364;DHT22;8799;43.594;13.526;2022-11-20T12:39:30;16.20;99.90
17364;DHT22;8799;43.594;13.526;2022-11-20T12:42:22;16.10;99.90
17364;DHT22;8799;43.594;13.526;2022-11-20T12:45:20;16.10;99.90
17364;DHT22;8799;43.594;13.526;2022-11-20T12:48:17;16.10;99.90
17364;DHT22;8799;43.594;13.526;2022-11-20T12:50:55;16.10;99.90
17364;DHT22;8799;43.594;13.526;2022-11-20T12:53:33;16.10;99.90
17364;DHT22;8799;43.594;13.526;2022-11-20T12:56:21;16.20;99.90
17364;DHT22;8799;43.594;13.526;2022-11-20T12:59:04;16.20;99.90
17364;DHT22;8799;43.594;13.526;2022-11-20T13:01:43;16.10;99.90
17364;DHT22;8799;43.594;13.526;2022-11-20T13:04:25;16.10;99.90
17364;DHT22;8799;43.594;13.526;2022-11-20T13:06:58;16.20;99.90
17364;DHT22;8799;43.594;13.526;2022-11-20T13:09:27;16.10;99.90
17364;DHT22;8799;43.594;13.526;2022-11-20T13:12:02;16.00;99.90
17364;DHT22;8799;43.594;13.526;2022-11-20T13:14:36;16.00;99.90
17364;DHT22;8799;43.594;13.526;2022-11-20T13:17:11;16.10;99.90
17364;DHT22;8799;43.594;13.526;2022-11-20T13:19:46;16.10;99.90
17364;DHT22;8799;43.594;13.526;2022-11-20T13:22:24;16.00;99.90
17364;DHT22;8799;43.594;13.526;2022-11-20T13:24:53;16.00;99.90
17364;DHT22;8799;43.594;13.526;2022-11-20T13:27:22;16.00;99.90
17364;DHT22;8799;43.594;13.526;2022-11-20T13:30:10;16.00;99.90
17364;DHT22;8799;43.594;13.526;2022-11-20T13:32:49;16.10;99.90
17364;DHT22;8799;43.594;13.526;2022-11-20T13:35:25;16.10;99.90
17364;DHT22;8799;43.594;13.526;2022-11-20T13:38:09;16.10;99.90
17364;DHT22;8799;43.594;13.526;2022-11-20T13:40:38;16.10;99.90
17364;DHT22;8799;43.594;13.526;2022-11-20T13:43:26;16.10;99.90
17364;DHT22;8799;43.594;13.526;2022-11-20T13:45:57;16.10;99.90
17364;DHT22;8799;43.594;13.526;2022-11-20T13:48:29;16.20;99.90
17364;DHT22;8799;43.594;13.526;2022-11-20T13:51:07;16.20;99.90
17364;DHT22;8799;43.594;13.526;2022-11-20T13:53:56;16.20;99.90
17364;DHT22;8799;43.594;13.526;2022-11-20T13:56:37;16.20;99.90
17364;DHT22;8799;43.594;13.526;2022-11-20T13:59:14;16.10;99.90
17364;DHT22;8799;43.594;13.526;2022-11-20T14:01:46;16.10;99.90
17364;DHT22;8799;43.594;13.526;2022-11-20T14:04:18;16.10;99.90
17364;DHT22;8799;43.594;13.526;2022-11-20T14:06:48;16.00;99.90
17364;DHT22;8799;43.594;13.526;2022-11-20T14:09:27;16.00;99.90
17364;DHT22;8799;43.594;13.526;2022-11-20T14:11:56;16.00;99.90
17364;DHT22;8799;43.594;13.526;2022-11-20T14:14:25;16.00;99.90
17364;DHT22;8799;43.594;13.526;2022-11-20T14:17:05;16.00;99.90
17364;DHT22;8799;43.594;13.526;2022-11-20T14:19:33;16.00;99.90
17364;DHT22;8799;43.594;13.526;2022-11-20T14:22:15;16.00;99.90
17364;DHT22;8799;43.594;13.526;2022-11-20T14:24:47;16.00;99.90
17364;DHT22;8799;43.594;13.526;2022-11-20T14:27:17;16.00;99.90
17364;DHT22;8799;43.594;13.526;2022-11-20T14:29:47;16.00;99.90
17364;DHT22;8799;43.594;13.526;2022-11-20T14:32:17;16.00;99.90
17364;DHT22;8799;43.594;13.526;2022-11-20T14:34:49;16.00;99.90
17364;DHT22;8799;43.594;13.526;2022-11-20T14:37:20;16.00;99.90
17364;DHT22;8799;43.594;13.526;2022-11-20T14:39:52;16.00;99.90
17364;DHT22;8799;43.594;13.526;2022-11-20T14:42:22;16.00;99.90
17364;DHT22;8799;43.594;13.526;2022-11-20T14:44:51;16.00;99.90
17364;DHT22;8799;43.594;13.526;2022-11-20T14:47:23;16.00;99.90
17364;DHT22;8799;43.594;13.526;2022-11-20T14:49:53;16.00;99.90
17364;DHT22;8799;43.594;13.526;2022-11-20T14:52:24;16.00;99.90
17364;DHT22;8799;43.594;13.526;2022-11-20T14:54:56;16.00;99.90
17364;DHT22;8799;43.594;13.526;2022-11-20T14:57:27;16.00;99.90
17364;DHT22;8799;43.594;13.526;2022-11-20T15:00:17;15.90;99.90
17364;DHT22;8799;43.594;13.526;2022-11-20T15:02:48;16.00;99.90
17364;DHT22;8799;43.594;13.526;2022-11-20T15:05:18;16.00;99.90
17364;DHT22;8799;43.594;13.526;2022-11-20T15:07:48;16.00;99.90
17364;DHT22;8799;43.594;13.526;2022-11-20T15:10:22;16.00;99.90
17364;DHT22;8799;43.594;13.526;2022-11-20T15:12:52;16.00;99.90
17364;DHT22;8799;43.594;13.526;2022-11-20T15:15:24;15.90;99.90
17364;DHT22;8799;43.594;13.526;2022-11-20T15:17:53;15.90;99.90
17364;DHT22;8799;43.594;13.526;2022-11-20T15:20:24;15.90;99.90
17364;DHT22;8799;43.594;13.526;2022-11-20T15:22:53;16.00;99.90
17364;DHT22;8799;43.594;13.526;2022-11-20T15:25:25;15.90;99.90
17364;DHT22;8799;43.594;13.526;2022-11-20T15:27:55;15.90;99.90
17364;DHT22;8799;43.594;13.526;2022-11-20T15:30:24;15.90;99.90
17364;DHT22;8799;43.594;13.526;2022-11-20T15:32:52;16.00;99.90
17364;DHT22;8799;43.594;13.526;2022-11-20T15:35:20;16.00;99.90
17364;DHT22;8799;43.594;13.526;2022-11-20T15:37:48;16.00;99.90
17364;DHT22;8799;43.594;13.526;2022-11-20T15:40:16;15.90;99.90
17364;DHT22;8799;43.594;13.526;2022-11-20T15:42:46;15.90;99.90
17364;DHT22;8799;43.594;13.526;2022-11-20T15:45:29;15.90;99.90
17364;DHT22;8799;43.594;13.526;2022-11-20T15:47:59;15.90;99.90
17364;DHT22;8799;43.594;13.526;2022-11-20T15:50:32;15.90;99.90
17364;DHT22;8799;43.594;13.526;2022-11-20T15:53:02;15.90;99.90
17364;DHT22;8799;43.594;13.526;2022-11-20T15:55:30;15.90;99.90
17364;DHT22;8799;43.594;13.526;2022-11-20T15:58:00;15.90;99.90
17364;DHT22;8799;43.594;13.526;2022-11-20T16:00:28;15.90;99.90
17364;DHT22;8799;43.594;13.526;2022-11-20T16:02:55;15.90;99.90
17364;DHT22;8799;43.594;13.526;2022-11-20T16:05:24;15.90;99.90
17364;DHT22;8799;43.594;13.526;2022-11-20T16:07:57;15.90;99.90
17364;DHT22;8799;43.594;13.526;2022-11-20T16:10:25;15.90;99.90